SondeTracker

Meteorological Radiosondes Database

Operations

Sounding was ended - last measurement: 2022-12-06 14:04:39z

MAP
About Radiosonde

Number: D22035392 (22035392)

Launch Site: Crested Butte [CO] (US)

Type: DFM17

AUX: NO

Frequency: 404.410 MHz

Max Speed: 232 km/h at 10460 m

Average Speed: 109.61 km/h

Max Altitude: 31942 m

Average Ascent Speed: 4.93 m/s

Average Descent Speed: 6.81 m/s

Status: UNKNOWN

Status Changes
Launch Site Type AUX Frequency Status Finder Landing Point Description Changes made by
APRS Statistics

Received Frames: 268

First Frame [UTC]: 2022-12-06 11:44:27z

Last Frame [UTC]: 2022-12-06 14:04:39z

Receivers: KF0FCV, WI0K

Flight Time: 02:20:12 h

Distance From First Measurement: 232.67 km

Nearest City: Cherry Creek [CO] (US) [0.98 km]

Nearest Hunter: KB3ZOW [8.99 km]

Ground Altitude: 1733 m

Distance from QTH: 0.00 km

APRS Data
Receiver Number Date/Time [UTC] φ λ Course [°] Speed [km/h] Altitude [m] Description
WI0KD220353922022-12-06 14:04:3939.6098-104.8761041759Clb=-2.6m/s t=-1.1C h=-1.0% p=-1.0hPa 404.410 MHz Type=DFM17 ser=22035392 Radiosonde
WI0KD220353922022-12-06 14:04:0739.6093-104.87720171807Clb=-2.6m/s t=0.1C h=-1.0% p=-1.0hPa 404.410 MHz Type=DFM17 ser=22035392 Radiosonde
WI0KD220353922022-12-06 14:03:3639.6084-104.8773071882Clb=-2.5m/s t=-0.3C h=-1.0% p=-1.0hPa 404.410 MHz Type=DFM17 ser=22035392 Radiosonde
WI0KD220353922022-12-06 14:03:0539.6076-104.87735791961Clb=-2.4m/s t=-0.7C h=-1.0% p=-1.0hPa 404.410 MHz Type=DFM17 ser=22035392 Radiosonde
WI0KD220353922022-12-06 14:02:3439.6072-104.87879112033Clb=-2.5m/s t=-0.6C h=-1.0% p=-1.0hPa 404.410 MHz Type=DFM17 ser=22035392 Radiosonde
WI0KD220353922022-12-06 14:02:0339.6074-104.878139132103Clb=-2.4m/s t=-0.6C h=-1.0% p=-1.0hPa 404.410 MHz Type=DFM17 ser=22035392 Radiosonde
WI0KD220353922022-12-06 14:01:3239.608-104.879170152174Clb=-2.6m/s t=-1.2C h=-1.0% p=-1.0hPa 404.410 MHz Type=DFM17 ser=22035392 Radiosonde
WI0KD220353922022-12-06 14:01:0139.609-104.87915592250Clb=-2.3m/s t=-1.0C h=-1.0% p=-1.0hPa 404.410 MHz Type=DFM17 ser=22035392 Radiosonde
WI0KD220353922022-12-06 14:00:3039.6101-104.88144222331Clb=-2.5m/s t=-1.4C h=-1.0% p=-1.0hPa 404.410 MHz Type=DFM17 ser=22035392 Radiosonde
WI0KD220353922022-12-06 13:59:5939.6113-104.881154192407Clb=-2.6m/s t=-1.8C h=-1.0% p=-1.0hPa 404.410 MHz Type=DFM17 ser=22035392 Radiosonde
WI0KD220353922022-12-06 13:59:2839.6122-104.883125132490Clb=-2.6m/s t=-2.1C h=-1.0% p=-1.0hPa 404.410 MHz Type=DFM17 ser=22035392 Radiosonde
WI0KD220353922022-12-06 13:58:5739.6132-104.885107282570Clb=-2.7m/s t=-2.1C h=-1.0% p=-1.0hPa 404.410 MHz Type=DFM17 ser=22035392 Radiosonde
WI0KD220353922022-12-06 13:58:2639.6137-104.88790112654Clb=-2.8m/s t=-2.3C h=-1.0% p=-1.0hPa 404.410 MHz Type=DFM17 ser=22035392 Radiosonde
WI0KD220353922022-12-06 13:57:5439.6138-104.88879172745Clb=-3.0m/s t=-3.0C h=-1.0% p=-1.0hPa 404.410 MHz Type=DFM17 ser=22035392 Radiosonde
WI0KD220353922022-12-06 13:57:2339.6135-104.8963132829Clb=-2.8m/s t=-3.7C h=-1.0% p=-1.0hPa 404.410 MHz Type=DFM17 ser=22035392 Radiosonde
WI0KD220353922022-12-06 13:56:5239.6127-104.89273262913Clb=-2.7m/s t=-4.1C h=-1.0% p=-1.0hPa 404.410 MHz Type=DFM17 ser=22035392 Radiosonde
WI0KD220353922022-12-06 13:56:2139.612-104.89565282998Clb=-2.6m/s t=-4.2C h=-1.0% p=-1.0hPa 404.410 MHz Type=DFM17 ser=22035392 Radiosonde
WI0KD220353922022-12-06 13:55:5039.611-104.89761263082Clb=-2.7m/s t=-4.5C h=-1.0% p=-1.0hPa 404.410 MHz Type=DFM17 ser=22035392 Radiosonde
WI0KD220353922022-12-06 13:55:1939.6105-104.976373161Clb=-2.4m/s t=-4.9C h=-1.0% p=-1.0hPa 404.410 MHz Type=DFM17 ser=22035392 Radiosonde
WI0KD220353922022-12-06 13:54:4839.6099-104.90475243246Clb=-2.8m/s t=-5.6C h=-1.0% p=-1.0hPa 404.410 MHz Type=DFM17 ser=22035392 Radiosonde
WI0KD220353922022-12-06 13:54:1739.6096-104.90771313330Clb=-2.7m/s t=-6.4C h=-1.0% p=-1.0hPa 404.410 MHz Type=DFM17 ser=22035392 Radiosonde
WI0KD220353922022-12-06 13:53:4639.6094-104.91193393415Clb=-2.8m/s t=-7.1C h=-1.0% p=-1.0hPa 404.410 MHz Type=DFM17 ser=22035392 Radiosonde
WI0KD220353922022-12-06 13:53:1539.6092-104.91488303509Clb=-2.9m/s t=-7.6C h=-1.0% p=-1.0hPa 404.410 MHz Type=DFM17 ser=22035392 Radiosonde
KF0FCVD220353922022-12-06 13:53:0939.6091-104.91574283536Clb=-3.0m/s t=-7.7C h=-1.0% p=-1.0hPa 404.410 MHz Type=DFM17 ser=22035392 Radiosonde
WI0KD220353922022-12-06 13:52:4439.6089-104.91884283603Clb=-2.7m/s t=-8.2C h=-1.0% p=-1.0hPa 404.410 MHz Type=DFM17 ser=22035392 Radiosonde
KF0FCVD220353922022-12-06 13:52:3839.6087-104.91885413621Clb=-2.9m/s t=-8.3C h=-1.0% p=-1.0hPa 404.410 MHz Type=DFM17 ser=22035392 Radiosonde
WI0KD220353922022-12-06 13:52:1339.6083-104.92171333687Clb=-2.8m/s t=-8.8C h=-1.0% p=-1.0hPa 404.410 MHz Type=DFM17 ser=22035392 Radiosonde
KF0FCVD220353922022-12-06 13:52:0739.6082-104.92274353704Clb=-2.8m/s t=-8.9C h=-1.0% p=-1.0hPa 404.410 MHz Type=DFM17 ser=22035392 Radiosonde
WI0KD220353922022-12-06 13:51:4239.6076-104.92582373769Clb=-2.6m/s t=-9.4C h=-1.0% p=-1.0hPa 404.410 MHz Type=DFM17 ser=22035392 Radiosonde
KF0FCVD220353922022-12-06 13:51:3639.6074-104.92684353789Clb=-2.9m/s t=-9.6C h=-1.0% p=-1.0hPa 404.410 MHz Type=DFM17 ser=22035392 Radiosonde
WI0KD220353922022-12-06 13:51:1139.6068-104.92978503854Clb=-2.8m/s t=-10.1C h=-1.0% p=-1.0hPa 404.410 MHz Type=DFM17 ser=22035392 Radiosonde
KF0FCVD220353922022-12-06 13:51:0539.6067-104.9376483872Clb=-3.1m/s t=-10.3C h=-1.0% p=-1.0hPa 404.410 MHz Type=DFM17 ser=22035392 Radiosonde
WI0KD220353922022-12-06 13:50:3939.6059-104.93479483945Clb=-2.7m/s t=-11.0C h=-1.0% p=-1.0hPa 404.410 MHz Type=DFM17 ser=22035392 Radiosonde
KF0FCVD220353922022-12-06 13:50:3439.6058-104.93473483960Clb=-3.5m/s t=-11.2C h=-1.0% p=-1.0hPa 404.410 MHz Type=DFM17 ser=22035392 Radiosonde
WI0KD220353922022-12-06 13:50:1039.6053-104.93873434054Clb=-3.5m/s t=-12.0C h=-1.0% p=-1.0hPa 404.410 MHz Type=DFM17 ser=22035392 Radiosonde
KF0FCVD220353922022-12-06 13:50:0339.6052-104.93975394074Clb=-3.4m/s t=-12.2C h=-1.0% p=-1.0hPa 404.410 MHz Type=DFM17 ser=22035392 Radiosonde
WI0KD220353922022-12-06 13:49:3739.6045-104.94385504161Clb=-4.3m/s t=-12.8C h=-1.0% p=-1.0hPa 404.410 MHz Type=DFM17 ser=22035392 Radiosonde
KF0FCVD220353922022-12-06 13:49:3239.6043-104.94477464188Clb=-3.9m/s t=-13.1C h=-1.0% p=-1.0hPa 404.410 MHz Type=DFM17 ser=22035392 Radiosonde
WI0KD220353922022-12-06 13:49:0639.6038-104.94886564282Clb=-3.3m/s t=-13.4C h=-1.0% p=-1.0hPa 404.410 MHz Type=DFM17 ser=22035392 Radiosonde
KF0FCVD220353922022-12-06 13:49:0139.6036-104.94986594303Clb=-3.6m/s t=-13.5C h=-1.0% p=-1.0hPa 404.410 MHz Type=DFM17 ser=22035392 Radiosonde
WI0KD220353922022-12-06 13:48:3539.6029-104.95477654388Clb=-3.4m/s t=-14.2C h=-1.0% p=-1.0hPa 404.410 MHz Type=DFM17 ser=22035392 Radiosonde
KF0FCVD220353922022-12-06 13:48:2939.6028-104.95575574404Clb=-3.0m/s t=-14.4C h=-1.0% p=-1.0hPa 404.410 MHz Type=DFM17 ser=22035392 Radiosonde
WI0KD220353922022-12-06 13:48:0439.6021-104.9676564475Clb=-2.9m/s t=-14.8C h=-1.0% p=-1.0hPa 404.410 MHz Type=DFM17 ser=22035392 Radiosonde
KF0FCVD220353922022-12-06 13:47:5839.6019-104.96178544491Clb=-2.8m/s t=-14.9C h=-1.0% p=-1.0hPa 404.410 MHz Type=DFM17 ser=22035392 Radiosonde
WI0KD220353922022-12-06 13:47:3339.6012-104.96670544564Clb=-3.0m/s t=-15.4C h=-1.0% p=-1.0hPa 404.410 MHz Type=DFM17 ser=22035392 Radiosonde
KF0FCVD220353922022-12-06 13:47:2739.601-104.96786564583Clb=-2.9m/s t=-15.6C h=-1.0% p=-1.0hPa 404.410 MHz Type=DFM17 ser=22035392 Radiosonde
WI0KD220353922022-12-06 13:47:0239.6003-104.97274654651Clb=-2.6m/s t=-16.2C h=-1.0% p=-1.0hPa 404.410 MHz Type=DFM17 ser=22035392 Radiosonde
KF0FCVD220353922022-12-06 13:46:5639.6001-104.97376654668Clb=-2.1m/s t=-16.4C h=-1.0% p=-1.0hPa 404.410 MHz Type=DFM17 ser=22035392 Radiosonde
WI0KD220353922022-12-06 13:46:3139.5994-104.97986694735Clb=-3.1m/s t=-17.0C h=-1.0% p=-1.0hPa 404.410 MHz Type=DFM17 ser=22035392 Radiosonde
KF0FCVD220353922022-12-06 13:46:2539.5993-104.9883724754Clb=-2.9m/s t=-17.2C h=-1.0% p=-1.0hPa 404.410 MHz Type=DFM17 ser=22035392 Radiosonde
WI0KD220353922022-12-06 13:46:0039.5988-104.98687724835Clb=-3.3m/s t=-17.9C h=-1.0% p=-1.0hPa 404.410 MHz Type=DFM17 ser=22035392 Radiosonde
KF0FCVD220353922022-12-06 13:45:5439.5987-104.98786744851Clb=-3.2m/s t=-18.0C h=-1.0% p=-1.0hPa 404.410 MHz Type=DFM17 ser=22035392 Radiosonde
WI0KD220353922022-12-06 13:45:2939.598-104.99381674933Clb=-3.4m/s t=-18.7C h=-1.0% p=-1.0hPa 404.410 MHz Type=DFM17 ser=22035392 Radiosonde
KF0FCVD220353922022-12-06 13:45:2339.5979-104.99485694953Clb=-3.4m/s t=-18.8C h=-1.0% p=-1.0hPa 404.410 MHz Type=DFM17 ser=22035392 Radiosonde
WI0KD220353922022-12-06 13:44:5839.5975-105.00178765040Clb=-3.6m/s t=-19.6C h=-1.0% p=-1.0hPa 404.410 MHz Type=DFM17 ser=22035392 Radiosonde
KF0FCVD220353922022-12-06 13:44:5239.5972-105.00277725061Clb=-3.5m/s t=-19.7C h=-1.0% p=-1.0hPa 404.410 MHz Type=DFM17 ser=22035392 Radiosonde
WI0KD220353922022-12-06 13:44:2739.5965-105.00875675154Clb=-3.6m/s t=-20.5C h=-1.0% p=-1.0hPa 404.410 MHz Type=DFM17 ser=22035392 Radiosonde
KF0FCVD220353922022-12-06 13:44:2139.5964-105.00982615181Clb=-3.3m/s t=-20.7C h=-1.0% p=-1.0hPa 404.410 MHz Type=DFM17 ser=22035392 Radiosonde
WI0KD220353922022-12-06 13:43:5639.5956-105.01471655273Clb=-4.0m/s t=-21.2C h=-1.0% p=-1.0hPa 404.410 MHz Type=DFM17 ser=22035392 Radiosonde
KF0FCVD220353922022-12-06 13:43:5039.5954-105.01685635295Clb=-4.1m/s t=-21.4C h=-1.0% p=-1.0hPa 404.410 MHz Type=DFM17 ser=22035392 Radiosonde
WI0KD220353922022-12-06 13:43:2539.5947-105.02182745391Clb=-3.7m/s t=-22.0C h=-1.0% p=-1.0hPa 404.410 MHz Type=DFM17 ser=22035392 Radiosonde
KF0FCVD220353922022-12-06 13:43:1939.5946-105.02279745412Clb=-4.6m/s t=-22.1C h=-1.0% p=-1.0hPa 404.410 MHz Type=DFM17 ser=22035392 Radiosonde
WI0KD220353922022-12-06 13:42:5439.594-105.02985785521Clb=-3.9m/s t=-22.9C h=-1.0% p=-1.0hPa 404.410 MHz Type=DFM17 ser=22035392 Radiosonde
KF0FCVD220353922022-12-06 13:42:4839.5938-105.0385815546Clb=-4.8m/s t=-23.1C h=-1.0% p=-1.0hPa 404.410 MHz Type=DFM17 ser=22035392 Radiosonde
WI0KD220353922022-12-06 13:42:2339.5935-105.03785835667Clb=-5.5m/s t=-24.2C h=-1.0% p=-1.0hPa 404.410 MHz Type=DFM17 ser=22035392 Radiosonde
KF0FCVD220353922022-12-06 13:42:1739.5934-105.03885815700Clb=-5.2m/s t=-24.4C h=-1.0% p=-1.0hPa 404.410 MHz Type=DFM17 ser=22035392 Radiosonde
WI0KD220353922022-12-06 13:41:5239.5928-105.04580855836Clb=-5.4m/s t=-25.2C h=-1.0% p=-1.0hPa 404.410 MHz Type=DFM17 ser=22035392 Radiosonde
KF0FCVD220353922022-12-06 13:41:4639.5926-105.04780875870Clb=-5.5m/s t=-25.4C h=-1.0% p=-1.0hPa 404.410 MHz Type=DFM17 ser=22035392 Radiosonde
WI0KD220353922022-12-06 13:41:2139.5915-105.05480986006Clb=-5.4m/s t=-26.3C h=-1.0% p=-1.0hPa 404.410 MHz Type=DFM17 ser=22035392 Radiosonde
KF0FCVD220353922022-12-06 13:41:1539.5913-105.056791006040Clb=-5.6m/s t=-26.5C h=-1.0% p=-1.0hPa 404.410 MHz Type=DFM17 ser=22035392 Radiosonde
WI0KD220353922022-12-06 13:40:5039.5903-105.064821066179Clb=-5.6m/s t=-27.5C h=-1.0% p=-1.0hPa 404.410 MHz Type=DFM17 ser=22035392 Radiosonde
KF0FCVD220353922022-12-06 13:40:4439.59-105.067821066225Clb=-5.6m/s t=-27.8C h=-1.0% p=-1.0hPa 404.410 MHz Type=DFM17 ser=22035392 Radiosonde
WI0KD220353922022-12-06 13:40:2139.5894-105.075841156354Clb=-5.7m/s t=-28.6C h=-1.0% p=-1.0hPa 404.410 MHz Type=DFM17 ser=22035392 Radiosonde
KF0FCVD220353922022-12-06 13:40:1839.5892-105.077841176388Clb=-5.5m/s t=-28.8C h=-1.0% p=-1.0hPa 404.410 MHz Type=DFM17 ser=22035392 Radiosonde
WI0KD220353922022-12-06 13:39:4839.5883-105.087821266536Clb=-5.4m/s t=-29.5C h=-1.0% p=-1.0hPa 404.410 MHz Type=DFM17 ser=22035392 Radiosonde
KF0FCVD220353922022-12-06 13:39:4139.588-105.09821266574Clb=-5.6m/s t=-29.8C h=-1.0% p=-1.0hPa 404.410 MHz Type=DFM17 ser=22035392 Radiosonde
WI0KD220353922022-12-06 13:39:1639.587-105.1831336702Clb=-5.2m/s t=-30.6C h=-1.0% p=-1.0hPa 404.410 MHz Type=DFM17 ser=22035392 Radiosonde
KF0FCVD220353922022-12-06 13:39:1039.5868-105.103831336732Clb=-5.1m/s t=-30.8C h=-1.0% p=-1.0hPa 404.410 MHz Type=DFM17 ser=22035392 Radiosonde
WI0KD220353922022-12-06 13:38:4539.5857-105.115821486865Clb=-5.0m/s t=-31.1C h=-1.0% p=-1.0hPa 404.410 MHz Type=DFM17 ser=22035392 Radiosonde
KF0FCVD220353922022-12-06 13:38:3939.5854-105.117821546890Clb=-5.0m/s t=-31.1C h=-1.0% p=-1.0hPa 404.410 MHz Type=DFM17 ser=22035392 Radiosonde
WI0KD220353922022-12-06 13:38:1439.5839-105.13801707015Clb=-4.9m/s t=-31.2C h=-1.0% p=-1.0hPa 404.410 MHz Type=DFM17 ser=22035392 Radiosonde
KF0FCVD220353922022-12-06 13:38:0839.5835-105.133791747044Clb=-4.8m/s t=-31.3C h=-1.0% p=-1.0hPa 404.410 MHz Type=DFM17 ser=22035392 Radiosonde
WI0KD220353922022-12-06 13:37:4339.5815-105.148781837165Clb=-4.7m/s t=-31.7C h=-1.0% p=-1.0hPa 404.410 MHz Type=DFM17 ser=22035392 Radiosonde
KF0FCVD220353922022-12-06 13:37:3739.5809-105.151771877193Clb=-4.5m/s t=-31.8C h=-1.0% p=-1.0hPa 404.410 MHz Type=DFM17 ser=22035392 Radiosonde
WI0KD220353922022-12-06 13:37:1239.5782-105.166761917308Clb=-4.6m/s t=-32.5C h=-1.0% p=-1.0hPa 404.410 MHz Type=DFM17 ser=22035392 Radiosonde
KF0FCVD220353922022-12-06 13:37:0639.5775-105.17751897335Clb=-4.4m/s t=-32.6C h=-1.0% p=-1.0hPa 404.410 MHz Type=DFM17 ser=22035392 Radiosonde
WI0KD220353922022-12-06 13:36:4139.5745-105.185751897453Clb=-4.8m/s t=-33.4C h=-1.0% p=-1.0hPa 404.410 MHz Type=DFM17 ser=22035392 Radiosonde
KF0FCVD220353922022-12-06 13:36:3539.5738-105.188751897482Clb=-4.9m/s t=-33.6C h=-1.0% p=-1.0hPa 404.410 MHz Type=DFM17 ser=22035392 Radiosonde
WI0KD220353922022-12-06 13:36:1039.571-105.203761897611Clb=-5.1m/s t=-34.4C h=-1.0% p=-1.0hPa 404.410 MHz Type=DFM17 ser=22035392 Radiosonde
KF0FCVD220353922022-12-06 13:36:0439.5703-105.207761897643Clb=-5.2m/s t=-34.7C h=-1.0% p=-1.0hPa 404.410 MHz Type=DFM17 ser=22035392 Radiosonde
WI0KD220353922022-12-06 13:35:3939.5678-105.222781897776Clb=-5.4m/s t=-35.9C h=-1.0% p=-1.0hPa 404.410 MHz Type=DFM17 ser=22035392 Radiosonde
KF0FCVD220353922022-12-06 13:35:3339.5672-105.225781897808Clb=-5.4m/s t=-36.2C h=-1.0% p=-1.0hPa 404.410 MHz Type=DFM17 ser=22035392 Radiosonde
WI0KD220353922022-12-06 13:35:0839.5648-105.24781897945Clb=-5.6m/s t=-37.4C h=-1.0% p=-1.0hPa 404.410 MHz Type=DFM17 ser=22035392 Radiosonde
KF0FCVD220353922022-12-06 13:35:0339.5643-105.244781917977Clb=-5.5m/s t=-37.7C h=-1.0% p=-1.0hPa 404.410 MHz Type=DFM17 ser=22035392 Radiosonde
WI0KD220353922022-12-06 13:34:3739.562-105.259791898114Clb=-5.3m/s t=-38.9C h=-1.0% p=-1.0hPa 404.410 MHz Type=DFM17 ser=22035392 Radiosonde
KF0FCVD220353922022-12-06 13:34:3139.5615-105.262791918146Clb=-5.5m/s t=-39.2C h=-1.0% p=-1.0hPa 404.410 MHz Type=DFM17 ser=22035392 Radiosonde
WI0KD220353922022-12-06 13:34:0639.5594-105.278791938284Clb=-5.2m/s t=-40.4C h=-1.0% p=-1.0hPa 404.410 MHz Type=DFM17 ser=22035392 Radiosonde
KF0FCVD220353922022-12-06 13:34:0039.5589-105.281801948315Clb=-5.4m/s t=-40.6C h=-1.0% p=-1.0hPa 404.410 MHz Type=DFM17 ser=22035392 Radiosonde
WI0KD220353922022-12-06 13:33:3539.5568-105.297801968448Clb=-4.8m/s t=-41.8C h=-1.0% p=-1.0hPa 404.410 MHz Type=DFM17 ser=22035392 Radiosonde
KF0FCVD220353922022-12-06 13:33:2939.5563-105.301781968480Clb=-5.3m/s t=-42.0C h=-1.0% p=-1.0hPa 404.410 MHz Type=DFM17 ser=22035392 Radiosonde
WI0KD220353922022-12-06 13:33:0439.5539-105.317792048609Clb=-4.6m/s t=-43.0C h=-1.0% p=-1.0hPa 404.410 MHz Type=DFM17 ser=22035392 Radiosonde
KF0FCVD220353922022-12-06 13:32:5839.5532-105.321782068643Clb=-4.7m/s t=-43.1C h=-1.0% p=-1.0hPa 404.410 MHz Type=DFM17 ser=22035392 Radiosonde
WI0KD220353922022-12-06 13:32:3339.5507-105.337772068757Clb=-4.9m/s t=-43.9C h=-1.0% p=-1.0hPa 404.410 MHz Type=DFM17 ser=22035392 Radiosonde
KF0FCVD220353922022-12-06 13:32:2739.5501-105.341772068787Clb=-4.9m/s t=-44.2C h=-1.0% p=-1.0hPa 404.410 MHz Type=DFM17 ser=22035392 Radiosonde
WI0KD220353922022-12-06 13:32:0239.547-105.358762078913Clb=-4.9m/s t=-45.0C h=-1.0% p=-1.0hPa 404.410 MHz Type=DFM17 ser=22035392 Radiosonde
KF0FCVD220353922022-12-06 13:31:5539.5462-105.362762098943Clb=-5.2m/s t=-45.2C h=-1.0% p=-1.0hPa 404.410 MHz Type=DFM17 ser=22035392 Radiosonde
WI0KD220353922022-12-06 13:31:3139.5434-105.377762079065Clb=-5.1m/s t=-46.1C h=-1.0% p=-1.0hPa 404.410 MHz Type=DFM17 ser=22035392 Radiosonde
KF0FCVD220353922022-12-06 13:31:2439.5425-105.382762079102Clb=-5.3m/s t=-46.4C h=-1.0% p=-1.0hPa 404.410 MHz Type=DFM17 ser=22035392 Radiosonde
WI0KD220353922022-12-06 13:30:5939.5394-105.399762179235Clb=-5.5m/s t=-46.3C h=-1.0% p=-1.0hPa 404.410 MHz Type=DFM17 ser=22035392 Radiosonde
KF0FCVD220353922022-12-06 13:30:5439.5385-105.403762179272Clb=-5.4m/s t=-46.6C h=-1.0% p=-1.0hPa 404.410 MHz Type=DFM17 ser=22035392 Radiosonde
WI0KD220353922022-12-06 13:30:2939.5359-105.42792139404Clb=-5.4m/s t=-46.9C h=-1.0% p=-1.0hPa 404.410 MHz Type=DFM17 ser=22035392 Radiosonde
KF0FCVD220353922022-12-06 13:30:2239.5353-105.424802159436Clb=-5.4m/s t=-46.7C h=-1.0% p=-1.0hPa 404.410 MHz Type=DFM17 ser=22035392 Radiosonde
WI0KD220353922022-12-06 13:29:5839.5329-105.442792209578Clb=-5.0m/s t=-46.3C h=-1.0% p=-1.0hPa 404.410 MHz Type=DFM17 ser=22035392 Radiosonde
KF0FCVD220353922022-12-06 13:29:5139.5323-105.446792209605Clb=-5.1m/s t=-46.5C h=-1.0% p=-1.0hPa 404.410 MHz Type=DFM17 ser=22035392 Radiosonde
WI0KD220353922022-12-06 13:29:2739.5299-105.463792199730Clb=-4.7m/s t=-47.3C h=-1.0% p=-1.0hPa 404.410 MHz Type=DFM17 ser=22035392 Radiosonde
KF0FCVD220353922022-12-06 13:29:2039.5293-105.467792199759Clb=-4.7m/s t=-47.4C h=-1.0% p=-1.0hPa 404.410 MHz Type=DFM17 ser=22035392 Radiosonde
WI0KD220353922022-12-06 13:28:5539.5265-105.485772209874Clb=-4.5m/s t=-47.9C h=-1.0% p=-1.0hPa 404.410 MHz Type=DFM17 ser=22035392 Radiosonde
KF0FCVD220353922022-12-06 13:28:4939.5258-105.489762209901Clb=-4.3m/s t=-48.0C h=-1.0% p=-1.0hPa 404.410 MHz Type=DFM17 ser=22035392 Radiosonde
WI0KD220353922022-12-06 13:28:2439.5225-105.5067621510008Clb=-4.2m/s t=-47.8C h=-1.0% p=-1.0hPa 404.410 MHz Type=DFM17 ser=22035392 Radiosonde
KF0FCVD220353922022-12-06 13:28:1939.5217-105.5117721510039Clb=-4.4m/s t=-47.8C h=-1.0% p=-1.0hPa 404.410 MHz Type=DFM17 ser=22035392 Radiosonde
WI0KD220353922022-12-06 13:27:5339.5187-105.5277621910143Clb=-4.0m/s t=-48.2C h=-1.0% p=-1.0hPa 404.410 MHz Type=DFM17 ser=22035392 Radiosonde
KF0FCVD220353922022-12-06 13:27:4739.5179-105.5327622010169Clb=-4.4m/s t=-48.4C h=-1.0% p=-1.0hPa 404.410 MHz Type=DFM17 ser=22035392 Radiosonde
WI0KD220353922022-12-06 13:27:2239.5143-105.557522210287Clb=-4.6m/s t=-49.3C h=-1.0% p=-1.0hPa 404.410 MHz Type=DFM17 ser=22035392 Radiosonde
KF0FCVD220353922022-12-06 13:27:1639.5136-105.5537422410310Clb=-4.7m/s t=-49.4C h=-1.0% p=-1.0hPa 404.410 MHz Type=DFM17 ser=22035392 Radiosonde
WI0KD220353922022-12-06 13:26:5139.5099-105.5717523010429Clb=-5.2m/s t=-49.9C h=-1.0% p=-1.0hPa 404.410 MHz Type=DFM17 ser=22035392 Radiosonde
KF0FCVD220353922022-12-06 13:26:4539.509-105.5757523210460Clb=-5.3m/s t=-50.0C h=-1.0% p=-1.0hPa 404.410 MHz Type=DFM17 ser=22035392 Radiosonde
WI0KD220353922022-12-06 13:26:2039.5054-105.5937523010597Clb=-5.7m/s t=-50.1C h=-1.0% p=-1.0hPa 404.410 MHz Type=DFM17 ser=22035392 Radiosonde
KF0FCVD220353922022-12-06 13:26:1439.5045-105.5987522810630Clb=-5.4m/s t=-50.3C h=-1.0% p=-1.0hPa 404.410 MHz Type=DFM17 ser=22035392 Radiosonde
WI0KD220353922022-12-06 13:25:4939.5009-105.6157522010776Clb=-5.8m/s t=-50.8C h=-1.0% p=-1.0hPa 404.410 MHz Type=DFM17 ser=22035392 Radiosonde
KF0FCVD220353922022-12-06 13:25:4539.5-105.627521910818Clb=-6.0m/s t=-51.2C h=-1.0% p=-1.0hPa 404.410 MHz Type=DFM17 ser=22035392 Radiosonde
WI0KD220353922022-12-06 13:25:1939.4967-105.6367421110965Clb=-6.2m/s t=-51.8C h=-1.0% p=-1.0hPa 404.410 MHz Type=DFM17 ser=22035392 Radiosonde
KF0FCVD220353922022-12-06 13:25:1239.4958-105.647420911001Clb=-6.2m/s t=-51.3C h=-1.0% p=-1.0hPa 404.410 MHz Type=DFM17 ser=22035392 Radiosonde
WI0KD220353922022-12-06 13:24:4739.492-105.6577320711159Clb=-6.1m/s t=-52.0C h=-1.0% p=-1.0hPa 404.410 MHz Type=DFM17 ser=22035392 Radiosonde
KF0FCVD220353922022-12-06 13:24:4139.4912-105.667220611189Clb=-5.8m/s t=-52.1C h=-1.0% p=-1.0hPa 404.410 MHz Type=DFM17 ser=22035392 Radiosonde
WI0KD220353922022-12-06 13:24:1639.4873-105.6767120411337Clb=-6.0m/s t=-52.3C h=-1.0% p=-1.0hPa 404.410 MHz Type=DFM17 ser=22035392 Radiosonde
KF0FCVD220353922022-12-06 13:24:1239.4863-105.687120611372Clb=-5.9m/s t=-52.4C h=-1.0% p=-1.0hPa 404.410 MHz Type=DFM17 ser=22035392 Radiosonde
WI0KD220353922022-12-06 13:23:4539.4816-105.6976920711527Clb=-6.1m/s t=-53.1C h=-1.0% p=-1.0hPa 404.410 MHz Type=DFM17 ser=22035392 Radiosonde
KF0FCVD220353922022-12-06 13:23:3939.4805-105.76920611561Clb=-5.4m/s t=-53.3C h=-1.0% p=-1.0hPa 404.410 MHz Type=DFM17 ser=22035392 Radiosonde
WI0KD220353922022-12-06 13:23:3039.3772-106.0917210017118Clb=-7.7m/s t=-66.1C h=-1.0% p=-1.0hPa 404.410 MHz Type=DFM17 ser=22035392 Radiosonde
WI0KD220353922022-12-06 13:22:5139.3755-106.1017710717365Clb=-7.8m/s t=-65.8C h=-1.0% p=-1.0hPa 404.410 MHz Type=DFM17 ser=22035392 Radiosonde
WI0KD220353922022-12-06 13:22:0839.374-106.11788717598Clb=-7.7m/s t=-66.0C h=-1.0% p=-1.0hPa 404.410 MHz Type=DFM17 ser=22035392 Radiosonde
WI0KD220353922022-12-06 13:21:3139.3741-106.121039617795Clb=-5.2m/s t=-65.7C h=-1.0% p=-1.0hPa 404.410 MHz Type=DFM17 ser=22035392 Radiosonde
WI0KD220353922022-12-06 13:20:5339.3736-106.129718917999Clb=-7.3m/s t=-66.0C h=-1.0% p=-1.0hPa 404.410 MHz Type=DFM17 ser=22035392 Radiosonde
WI0KD220353922022-12-06 13:20:1039.3721-106.1398510018219Clb=-7.8m/s t=-66.3C h=-1.0% p=-1.0hPa 404.410 MHz Type=DFM17 ser=22035392 Radiosonde
WI0KD220353922022-12-06 13:19:2339.3694-106.1495910618459Clb=-8.0m/s t=-64.4C h=-1.0% p=-1.0hPa 404.410 MHz Type=DFM17 ser=22035392 Radiosonde
WI0KD220353922022-12-06 13:18:4439.3672-106.159789118686Clb=-7.9m/s t=-64.7C h=-1.0% p=-1.0hPa 404.410 MHz Type=DFM17 ser=22035392 Radiosonde
WI0KD220353922022-12-06 13:18:0439.3663-106.1699511118897Clb=-7.1m/s t=-64.6C h=-1.0% p=-1.0hPa 404.410 MHz Type=DFM17 ser=22035392 Radiosonde
WI0KD220353922022-12-06 13:17:1939.3665-106.188310919113Clb=-6.8m/s t=-64.0C h=-1.0% p=-1.0hPa 404.410 MHz Type=DFM17 ser=22035392 Radiosonde
WI0KD220353922022-12-06 13:16:3739.3662-106.19748719314Clb=-6.9m/s t=-61.9C h=-1.0% p=-1.0hPa 404.410 MHz Type=DFM17 ser=22035392 Radiosonde
WI0KD220353922022-12-06 13:16:0039.3667-106.1991069319545Clb=-6.8m/s t=-60.2C h=-1.0% p=-1.0hPa 404.410 MHz Type=DFM17 ser=22035392 Radiosonde
WI0KD220353922022-12-06 13:15:1539.3665-106.207869619776Clb=-8.4m/s t=-60.4C h=-1.0% p=-1.0hPa 404.410 MHz Type=DFM17 ser=22035392 Radiosonde
WI0KD220353922022-12-06 13:14:3339.365-106.2156810420025Clb=-8.0m/s t=-62.0C h=-1.0% p=-1.0hPa 404.410 MHz Type=DFM17 ser=22035392 Radiosonde
WI0KD220353922022-12-06 13:13:5339.3632-106.225758320282Clb=-7.5m/s t=-62.0C h=-1.0% p=-1.0hPa 404.410 MHz Type=DFM17 ser=22035392 Radiosonde
WI0KD220353922022-12-06 13:13:0839.3629-106.234947620535Clb=-7.6m/s t=-61.9C h=-1.0% p=-1.0hPa 404.410 MHz Type=DFM17 ser=22035392 Radiosonde
WI0KD220353922022-12-06 13:12:2239.364-106.2431188720793Clb=-8.3m/s t=-61.8C h=-1.0% p=-1.0hPa 404.410 MHz Type=DFM17 ser=22035392 Radiosonde
WI0KD220353922022-12-06 13:12:0139.365-106.251128121036Clb=-7.6m/s t=-60.7C h=-1.0% p=-1.0hPa 404.410 MHz Type=DFM17 ser=22035392 Radiosonde
WI0KD220353922022-12-06 13:11:5339.3663-106.2571148721298Clb=-7.4m/s t=-61.2C h=-1.0% p=-1.0hPa 404.410 MHz Type=DFM17 ser=22035392 Radiosonde
WI0KD220353922022-12-06 13:11:4739.3684-106.2631178321574Clb=-8.0m/s t=-62.3C h=-1.0% p=-1.0hPa 404.410 MHz Type=DFM17 ser=22035392 Radiosonde
WI0KD220353922022-12-06 13:11:3939.3704-106.2691248521859Clb=-9.1m/s t=-61.9C h=-1.0% p=-1.0hPa 404.410 MHz Type=DFM17 ser=22035392 Radiosonde
WI0KD220353922022-12-06 13:11:3739.3728-106.2751197022163Clb=-8.8m/s t=-55.4C h=-1.0% p=-1.0hPa 404.410 MHz Type=DFM17 ser=22035392 Radiosonde
WI0KD220353922022-12-06 13:11:2839.3735-106.2781463322438Clb=-9.3m/s t=-56.3C h=-1.0% p=-1.0hPa 404.410 MHz Type=DFM17 ser=22035392 Radiosonde
WI0KD220353922022-12-06 13:10:5739.3727-106.282411922729Clb=-10.8m/s t=-58.5C h=-1.0% p=-1.0hPa 404.410 MHz Type=DFM17 ser=22035392 Radiosonde
WI0KD220353922022-12-06 13:10:0939.3707-106.286375423027Clb=-8.8m/s t=-59.3C h=-1.0% p=-1.0hPa 404.410 MHz Type=DFM17 ser=22035392 Radiosonde
WI0KD220353922022-12-06 13:09:1439.369-106.291537823313Clb=-8.9m/s t=-60.3C h=-1.0% p=-1.0hPa 404.410 MHz Type=DFM17 ser=22035392 Radiosonde
WI0KD220353922022-12-06 13:08:2239.3696-106.298885223619Clb=-9.1m/s t=-59.6C h=-1.0% p=-1.0hPa 404.410 MHz Type=DFM17 ser=22035392 Radiosonde
WI0KD220353922022-12-06 13:07:2039.3715-106.3021237023914Clb=-9.6m/s t=-58.9C h=-1.0% p=-1.0hPa 404.410 MHz Type=DFM17 ser=22035392 Radiosonde
WI0KD220353922022-12-06 13:06:3139.373-106.3061197624261Clb=-11.0m/s t=-59.4C h=-1.0% p=-1.0hPa 404.410 MHz Type=DFM17 ser=22035392 Radiosonde
WI0KD220353922022-12-06 13:05:4639.3746-106.311476324618Clb=-11.7m/s t=-61.7C h=-1.0% p=-1.0hPa 404.410 MHz Type=DFM17 ser=22035392 Radiosonde
WI0KD220353922022-12-06 13:04:5739.3774-106.3141487424978Clb=-10.6m/s t=-61.6C h=-1.0% p=-1.0hPa 404.410 MHz Type=DFM17 ser=22035392 Radiosonde
WI0KD220353922022-12-06 13:04:0339.3804-106.3181326525355Clb=-12.1m/s t=-58.3C h=-1.0% p=-1.0hPa 404.410 MHz Type=DFM17 ser=22035392 Radiosonde
WI0KD220353922022-12-06 13:03:1139.3834-106.3241006925748Clb=-13.8m/s t=-59.3C h=-1.0% p=-1.0hPa 404.410 MHz Type=DFM17 ser=22035392 Radiosonde
WI0KD220353922022-12-06 13:02:2639.3867-106.3291504326134Clb=-10.7m/s t=-57.1C h=-1.0% p=-1.0hPa 404.410 MHz Type=DFM17 ser=22035392 Radiosonde
WI0KD220353922022-12-06 13:01:3939.3882-106.3371299426530Clb=-14.9m/s t=-54.6C h=-1.0% p=-1.0hPa 404.410 MHz Type=DFM17 ser=22035392 Radiosonde
WI0KD220353922022-12-06 13:00:4239.3896-106.3461271326981Clb=-13.0m/s t=-54.2C h=-1.0% p=-1.0hPa 404.410 MHz Type=DFM17 ser=22035392 Radiosonde
WI0KD220353922022-12-06 12:59:3939.3901-106.352341927422Clb=-14.9m/s t=-52.9C h=-1.0% p=-1.0hPa 404.410 MHz Type=DFM17 ser=22035392 Radiosonde
WI0KD220353922022-12-06 12:58:3439.3893-106.3591087827865Clb=-13.6m/s t=-51.5C h=-1.0% p=-1.0hPa 404.410 MHz Type=DFM17 ser=22035392 Radiosonde
WI0KD220353922022-12-06 12:57:2739.3887-106.3659012028336Clb=-14.7m/s t=-53.4C h=-1.0% p=-1.0hPa 404.410 MHz Type=DFM17 ser=22035392 Radiosonde
WI0KD220353922022-12-06 12:56:3439.389-106.373595928793Clb=-14.6m/s t=-56.0C h=-1.0% p=-1.0hPa 404.410 MHz Type=DFM17 ser=22035392 Radiosonde
WI0KD220353922022-12-06 12:55:3939.3902-106.3821366129273Clb=-12.8m/s t=-57.8C h=-1.0% p=-1.0hPa 404.410 MHz Type=DFM17 ser=22035392 Radiosonde
WI0KD220353922022-12-06 12:54:4139.391-106.388779129709Clb=-8.7m/s t=-57.7C h=-1.0% p=-1.0hPa 404.410 MHz Type=DFM17 ser=22035392 Radiosonde
WI0KD220353922022-12-06 12:53:4839.3926-106.39811910230247Clb=-27.3m/s t=-59.1C h=-1.0% p=-1.0hPa 404.410 MHz Type=DFM17 ser=22035392 Radiosonde
WI0KD220353922022-12-06 12:52:5339.3946-106.40910610930843Clb=-18.6m/s t=-57.9C h=-1.0% p=-1.0hPa 404.410 MHz Type=DFM17 ser=22035392 Radiosonde
WI0KD220353922022-12-06 12:51:4539.3971-106.42211513931623Clb=-33.3m/s t=-54.9C h=-1.0% p=-1.0hPa 404.410 MHz Type=DFM17 ser=22035392 Radiosonde
WI0KD220353922022-12-06 12:50:4839.3991-106.43710816131942Clb=3.0m/s t=-53.1C h=-1.0% p=-1.0hPa 404.410 MHz Type=DFM17 ser=22035392 Radiosonde
WI0KD220353922022-12-06 12:49:4439.401-106.4519514831757Clb=3.7m/s t=-55.4C h=-1.0% p=-1.0hPa 404.410 MHz Type=DFM17 ser=22035392 Radiosonde
WI0KD220353922022-12-06 12:48:3739.4037-106.4658515431576Clb=10.2m/s t=-55.2C h=-1.0% p=-1.0hPa 404.410 MHz Type=DFM17 ser=22035392 Radiosonde
WI0KD220353922022-12-06 12:47:3339.4057-106.481108731411Clb=6.3m/s t=-55.5C h=-1.0% p=-1.0hPa 404.410 MHz Type=DFM17 ser=22035392 Radiosonde
WI0KD220353922022-12-06 12:46:3439.4075-106.49310413031242Clb=1.9m/s t=-56.8C h=-1.0% p=-1.0hPa 404.410 MHz Type=DFM17 ser=22035392 Radiosonde
WI0KD220353922022-12-06 12:45:3539.4082-106.5059412631073Clb=4.5m/s t=-57.3C h=-1.0% p=-1.0hPa 404.410 MHz Type=DFM17 ser=22035392 Radiosonde
WI0KD220353922022-12-06 12:44:3039.4104-106.5159410230882Clb=12.0m/s t=-57.3C h=-1.0% p=-1.0hPa 404.410 MHz Type=DFM17 ser=22035392 Radiosonde
WI0KD220353922022-12-06 12:43:5839.4114-106.52510910930683Clb=11.6m/s t=-56.6C h=-1.0% p=-1.0hPa 404.410 MHz Type=DFM17 ser=22035392 Radiosonde
WI0KD220353922022-12-06 12:43:5039.412-106.536815230471Clb=3.4m/s t=-57.0C h=-1.0% p=-1.0hPa 404.410 MHz Type=DFM17 ser=22035392 Radiosonde
WI0KD220353922022-12-06 12:43:4839.4142-106.5461079830260Clb=9.8m/s t=-56.9C h=-1.0% p=-1.0hPa 404.410 MHz Type=DFM17 ser=22035392 Radiosonde
WI0KD220353922022-12-06 12:43:3439.4165-106.55510412430032Clb=3.7m/s t=-56.5C h=-1.0% p=-1.0hPa 404.410 MHz Type=DFM17 ser=22035392 Radiosonde
WI0KD220353922022-12-06 12:43:1639.4179-106.56310410929803Clb=11.0m/s t=-55.2C h=-1.0% p=-1.0hPa 404.410 MHz Type=DFM17 ser=22035392 Radiosonde
WI0KD220353922022-12-06 12:42:3639.4195-106.57310912629577Clb=3.1m/s t=-54.7C h=-1.0% p=-1.0hPa 404.410 MHz Type=DFM17 ser=22035392 Radiosonde
WI0KD220353922022-12-06 12:42:0039.4215-106.5821046529395Clb=3.9m/s t=-54.0C h=-1.0% p=-1.0hPa 404.410 MHz Type=DFM17 ser=22035392 Radiosonde
WI0KD220353922022-12-06 12:41:5639.423-106.591828029206Clb=8.8m/s t=-53.6C h=-1.0% p=-1.0hPa 404.410 MHz Type=DFM17 ser=22035392 Radiosonde
WI0KD220353922022-12-06 12:41:5239.423-106.599977829025Clb=3.6m/s t=-54.6C h=-1.0% p=-1.0hPa 404.410 MHz Type=DFM17 ser=22035392 Radiosonde
WI0KD220353922022-12-06 12:41:4939.4233-106.6061089128866Clb=8.7m/s t=-54.2C h=-1.0% p=-1.0hPa 404.410 MHz Type=DFM17 ser=22035392 Radiosonde
WI0KD220353922022-12-06 12:41:4739.4242-106.61511710028706Clb=6.7m/s t=-54.1C h=-1.0% p=-1.0hPa 404.410 MHz Type=DFM17 ser=22035392 Radiosonde
WI0KD220353922022-12-06 12:41:4339.4245-106.6247212628568Clb=0.8m/s t=-54.5C h=-1.0% p=-1.0hPa 404.410 MHz Type=DFM17 ser=22035392 Radiosonde
WI0KD220353922022-12-06 12:41:1539.4238-106.6346510628430Clb=0.8m/s t=-53.8C h=-1.0% p=-1.0hPa 404.410 MHz Type=DFM17 ser=22035392 Radiosonde
WI0KD220353922022-12-06 12:40:2939.4237-106.6421125928298Clb=1.8m/s t=-53.1C h=-1.0% p=-1.0hPa 404.410 MHz Type=DFM17 ser=22035392 Radiosonde
WI0KD220353922022-12-06 12:39:2639.4233-106.649947428147Clb=3.0m/s t=-53.3C h=-1.0% p=-1.0hPa 404.410 MHz Type=DFM17 ser=22035392 Radiosonde
WI0KD220353922022-12-06 12:38:1539.423-106.6571107427997Clb=3.7m/s t=-54.5C h=-1.0% p=-1.0hPa 404.410 MHz Type=DFM17 ser=22035392 Radiosonde
WI0KD220353922022-12-06 12:37:0239.4227-106.6641145027822Clb=4.5m/s t=-56.8C h=-1.0% p=-1.0hPa 404.410 MHz Type=DFM17 ser=22035392 Radiosonde
WI0KD220353922022-12-06 12:35:5439.4228-106.671196527626Clb=3.1m/s t=-56.6C h=-1.0% p=-1.0hPa 404.410 MHz Type=DFM17 ser=22035392 Radiosonde
WI0KD220353922022-12-06 12:34:3039.4237-106.6751416327417Clb=1.3m/s t=-55.3C h=-1.0% p=-1.0hPa 404.410 MHz Type=DFM17 ser=22035392 Radiosonde
WI0KD220353922022-12-06 12:33:1539.4252-106.6811475727202Clb=5.6m/s t=-55.0C h=-1.0% p=-1.0hPa 404.410 MHz Type=DFM17 ser=22035392 Radiosonde
WI0KD220353922022-12-06 12:32:2439.4636-106.782842023855Clb=5.5m/s t=-57.0C h=-1.0% p=-1.0hPa 404.410 MHz Type=DFM17 ser=22035392 Radiosonde
WI0KD220353922022-12-06 12:31:1239.4639-106.7851034423670Clb=4.7m/s t=-55.7C h=-1.0% p=-1.0hPa 404.410 MHz Type=DFM17 ser=22035392 Radiosonde
WI0KD220353922022-12-06 12:29:5739.4646-106.7881294823481Clb=4.4m/s t=-54.7C h=-1.0% p=-1.0hPa 404.410 MHz Type=DFM17 ser=22035392 Radiosonde
WI0KD220353922022-12-06 12:28:4539.4654-106.7921092623293Clb=5.3m/s t=-56.3C h=-1.0% p=-1.0hPa 404.410 MHz Type=DFM17 ser=22035392 Radiosonde
WI0KD220353922022-12-06 12:27:3539.4665-106.798887223128Clb=6.2m/s t=-56.6C h=-1.0% p=-1.0hPa 404.410 MHz Type=DFM17 ser=22035392 Radiosonde
WI0KD220353922022-12-06 12:26:3239.4661-106.805616923012Clb=3.5m/s t=-58.0C h=-1.0% p=-1.0hPa 404.410 MHz Type=DFM17 ser=22035392 Radiosonde
WI0KD220353922022-12-06 12:25:2239.4657-106.812736522890Clb=2.8m/s t=-58.4C h=-1.0% p=-1.0hPa 404.410 MHz Type=DFM17 ser=22035392 Radiosonde
WI0KD220353922022-12-06 12:24:0439.4664-106.817956522756Clb=4.6m/s t=-58.9C h=-1.0% p=-1.0hPa 404.410 MHz Type=DFM17 ser=22035392 Radiosonde
WI0KD220353922022-12-06 12:22:5239.4681-106.8231125622590Clb=6.5m/s t=-62.3C h=-1.0% p=-1.0hPa 404.410 MHz Type=DFM17 ser=22035392 Radiosonde
WI0KD220353922022-12-06 12:21:3639.4701-106.8281283722407Clb=7.4m/s t=-63.6C h=-1.0% p=-1.0hPa 404.410 MHz Type=DFM17 ser=22035392 Radiosonde
WI0KD220353922022-12-06 12:20:0439.4725-106.8331375722217Clb=7.0m/s t=-63.1C h=-1.0% p=-1.0hPa 404.410 MHz Type=DFM17 ser=22035392 Radiosonde
WI0KD220353922022-12-06 12:18:2339.4751-106.8371285922039Clb=7.1m/s t=-63.1C h=-1.0% p=-1.0hPa 404.410 MHz Type=DFM17 ser=22035392 Radiosonde
WI0KD220353922022-12-06 12:17:1539.4771-106.8421037221872Clb=4.8m/s t=-63.1C h=-1.0% p=-1.0hPa 404.410 MHz Type=DFM17 ser=22035392 Radiosonde
WI0KD220353922022-12-06 12:16:0439.4778-106.848856321712Clb=2.9m/s t=-62.6C h=-1.0% p=-1.0hPa 404.410 MHz Type=DFM17 ser=22035392 Radiosonde
WI0KD220353922022-12-06 12:15:5839.4782-106.853904421570Clb=5.1m/s t=-61.8C h=-1.0% p=-1.0hPa 404.410 MHz Type=DFM17 ser=22035392 Radiosonde
WI0KD220353922022-12-06 12:15:5539.4788-106.859886921427Clb=5.3m/s t=-61.1C h=-1.0% p=-1.0hPa 404.410 MHz Type=DFM17 ser=22035392 Radiosonde
WI0KD220353922022-12-06 12:15:5139.4791-106.865916521277Clb=5.9m/s t=-61.5C h=-1.0% p=-1.0hPa 404.410 MHz Type=DFM17 ser=22035392 Radiosonde
WI0KD220353922022-12-06 12:15:4839.4788-106.872745021128Clb=1.4m/s t=-60.6C h=-1.0% p=-1.0hPa 404.410 MHz Type=DFM17 ser=22035392 Radiosonde
WI0KD220353922022-12-06 12:15:4539.4784-106.879838920971Clb=6.2m/s t=-60.5C h=-1.0% p=-1.0hPa 404.410 MHz Type=DFM17 ser=22035392 Radiosonde
WI0KD220353922022-12-06 12:15:2439.4781-106.885938020820Clb=6.1m/s t=-61.4C h=-1.0% p=-1.0hPa 404.410 MHz Type=DFM17 ser=22035392 Radiosonde
WI0KD220353922022-12-06 12:14:4939.4785-106.8941038120657Clb=5.6m/s t=-61.7C h=-1.0% p=-1.0hPa 404.410 MHz Type=DFM17 ser=22035392 Radiosonde
WI0KD220353922022-12-06 12:13:4139.4784-106.902939620508Clb=4.8m/s t=-61.6C h=-1.0% p=-1.0hPa 404.410 MHz Type=DFM17 ser=22035392 Radiosonde
WI0KD220353922022-12-06 12:12:3139.4781-106.911868520370Clb=3.3m/s t=-62.3C h=-1.0% p=-1.0hPa 404.410 MHz Type=DFM17 ser=22035392 Radiosonde
WI0KD220353922022-12-06 12:11:1939.4765-106.92747820222Clb=5.1m/s t=-62.7C h=-1.0% p=-1.0hPa 404.410 MHz Type=DFM17 ser=22035392 Radiosonde
WI0KD220353922022-12-06 12:09:4339.4625-107.088749816887Clb=4.5m/s t=-62.6C h=-1.0% p=-1.0hPa 404.410 MHz Type=DFM17 ser=22035392 Radiosonde
WI0KD220353922022-12-06 12:08:2139.4609-107.097809316729Clb=5.0m/s t=-62.5C h=-1.0% p=-1.0hPa 404.410 MHz Type=DFM17 ser=22035392 Radiosonde
WI0KD220353922022-12-06 12:07:0139.4597-107.1068510016569Clb=5.9m/s t=-62.3C h=-1.0% p=-1.0hPa 404.410 MHz Type=DFM17 ser=22035392 Radiosonde
WI0KD220353922022-12-06 12:05:5139.4593-107.1158610016412Clb=4.3m/s t=-62.1C h=-1.0% p=-1.0hPa 404.410 MHz Type=DFM17 ser=22035392 Radiosonde
WI0KD220353922022-12-06 12:04:3539.4592-107.1268810916265Clb=4.9m/s t=-62.0C h=-1.0% p=-1.0hPa 404.410 MHz Type=DFM17 ser=22035392 Radiosonde
WI0KD220353922022-12-06 12:03:1639.4585-107.1378611916136Clb=5.2m/s t=-61.6C h=-1.0% p=-1.0hPa 404.410 MHz Type=DFM17 ser=22035392 Radiosonde
WI0KD220353922022-12-06 12:02:0739.4569-107.1498113916005Clb=4.1m/s t=-61.1C h=-1.0% p=-1.0hPa 404.410 MHz Type=DFM17 ser=22035392 Radiosonde
WI0KD220353922022-12-06 12:01:0439.4544-107.1637213515878Clb=4.5m/s t=-61.9C h=-1.0% p=-1.0hPa 404.410 MHz Type=DFM17 ser=22035392 Radiosonde
WI0KD220353922022-12-06 11:59:4739.451-107.1757014415747Clb=4.7m/s t=-61.9C h=-1.0% p=-1.0hPa 404.410 MHz Type=DFM17 ser=22035392 Radiosonde
WI0KD220353922022-12-06 11:58:2639.4472-107.1896714415606Clb=4.9m/s t=-61.4C h=-1.0% p=-1.0hPa 404.410 MHz Type=DFM17 ser=22035392 Radiosonde
WI0KD220353922022-12-06 11:57:0939.443-107.2036514115466Clb=4.2m/s t=-61.0C h=-1.0% p=-1.0hPa 404.410 MHz Type=DFM17 ser=22035392 Radiosonde
WI0KD220353922022-12-06 11:56:0439.4391-107.2166913315321Clb=4.3m/s t=-60.0C h=-1.0% p=-1.0hPa 404.410 MHz Type=DFM17 ser=22035392 Radiosonde
WI0KD220353922022-12-06 11:54:5439.4358-107.2287012415173Clb=5.7m/s t=-59.1C h=-1.0% p=-1.0hPa 404.410 MHz Type=DFM17 ser=22035392 Radiosonde
WI0KD220353922022-12-06 11:53:4039.4327-107.247012215021Clb=3.4m/s t=-58.6C h=-1.0% p=-1.0hPa 404.410 MHz Type=DFM17 ser=22035392 Radiosonde
WI0KD220353922022-12-06 11:52:2039.4297-107.2526912214890Clb=3.6m/s t=-58.4C h=-1.0% p=-1.0hPa 404.410 MHz Type=DFM17 ser=22035392 Radiosonde
WI0KD220353922022-12-06 11:51:4539.4262-107.2646612814757Clb=4.6m/s t=-57.9C h=-1.0% p=-1.0hPa 404.410 MHz Type=DFM17 ser=22035392 Radiosonde
WI0KD220353922022-12-06 11:51:0639.4224-107.2777214314625Clb=4.4m/s t=-57.6C h=-1.0% p=-1.0hPa 404.410 MHz Type=DFM17 ser=22035392 Radiosonde
WI0KD220353922022-12-06 11:50:4639.4193-107.297215414495Clb=4.2m/s t=-57.7C h=-1.0% p=-1.0hPa 404.410 MHz Type=DFM17 ser=22035392 Radiosonde
WI0KD220353922022-12-06 11:50:0939.4165-107.3067717814362Clb=2.9m/s t=-57.7C h=-1.0% p=-1.0hPa 404.410 MHz Type=DFM17 ser=22035392 Radiosonde
WI0KD220353922022-12-06 11:49:5739.4132-107.327316314220Clb=3.8m/s t=-57.4C h=-1.0% p=-1.0hPa 404.410 MHz Type=DFM17 ser=22035392 Radiosonde
WI0KD220353922022-12-06 11:49:4739.4096-107.3347214314084Clb=6.4m/s t=-57.9C h=-1.0% p=-1.0hPa 404.410 MHz Type=DFM17 ser=22035392 Radiosonde
WI0KD220353922022-12-06 11:49:2239.4061-107.357115713935Clb=4.3m/s t=-56.8C h=-1.0% p=-1.0hPa 404.410 MHz Type=DFM17 ser=22035392 Radiosonde
WI0KD220353922022-12-06 11:48:5639.4022-107.3657117013787Clb=4.9m/s t=-56.8C h=-1.0% p=-1.0hPa 404.410 MHz Type=DFM17 ser=22035392 Radiosonde
WI0KD220353922022-12-06 11:48:4939.3989-107.3817716313642Clb=4.8m/s t=-57.6C h=-1.0% p=-1.0hPa 404.410 MHz Type=DFM17 ser=22035392 Radiosonde
WI0KD220353922022-12-06 11:48:4739.3964-107.3977715913507Clb=3.4m/s t=-57.5C h=-1.0% p=-1.0hPa 404.410 MHz Type=DFM17 ser=22035392 Radiosonde
WI0KD220353922022-12-06 11:48:4439.3936-107.4147617013365Clb=3.9m/s t=-57.9C h=-1.0% p=-1.0hPa 404.410 MHz Type=DFM17 ser=22035392 Radiosonde
WI0KD220353922022-12-06 11:48:4239.3908-107.4327818913226Clb=5.5m/s t=-57.8C h=-1.0% p=-1.0hPa 404.410 MHz Type=DFM17 ser=22035392 Radiosonde
WI0KD220353922022-12-06 11:48:4039.3876-107.4517819813089Clb=4.7m/s t=-57.3C h=-1.0% p=-1.0hPa 404.410 MHz Type=DFM17 ser=22035392 Radiosonde
WI0KD220353922022-12-06 11:48:3839.3838-107.477420612959Clb=3.4m/s t=-57.0C h=-1.0% p=-1.0hPa 404.410 MHz Type=DFM17 ser=22035392 Radiosonde
WI0KD220353922022-12-06 11:48:3139.379-107.497220412829Clb=5.0m/s t=-57.3C h=-1.0% p=-1.0hPa 404.410 MHz Type=DFM17 ser=22035392 Radiosonde
WI0KD220353922022-12-06 11:47:3239.3741-107.517320412693Clb=5.1m/s t=-56.7C h=-1.0% p=-1.0hPa 404.410 MHz Type=DFM17 ser=22035392 Radiosonde
WI0KD220353922022-12-06 11:46:2939.3694-107.5296919812563Clb=4.0m/s t=-56.6C h=-1.0% p=-1.0hPa 404.410 MHz Type=DFM17 ser=22035392 Radiosonde
WI0KD220353922022-12-06 11:45:2839.3652-107.5487419412433Clb=3.9m/s t=-56.4C h=-1.0% p=-1.0hPa 404.410 MHz Type=DFM17 ser=22035392 Radiosonde
WI0KD220353922022-12-06 11:44:2739.3611-107.5687321312311Clb=3.1m/s t=-56.5C h=-1.0% p=-1.0hPa 404.410 MHz Type=DFM17 ser=22035392 Radiosonde